Aviation Digital Data Service (ADDS)

Output produced by METARs form (2340 UTC 25 August 2016)
found at http://aviationweather.gov/adds/metars/
 
KPGV 252323Z 2600/2624 VRB04KT P6SM SKC 
     FM260900 00000KT 4SM BR SCT050 
     FM261300 VRB03KT P6SM SCT200 AMD LTD TO CLD VIS AND WIND